sensor_id;sensor_type;location;lat;lon;timestamp;pressure;altitude;pressure_sealevel;temperature;humidity
45621;BME280;31345;51.522;10.702;2024-03-08T00:01:04;99610.69;;;0.09;99.00
45621;BME280;31345;51.522;10.702;2024-03-08T00:03:33;99622.72;;;0.05;98.87
45621;BME280;31345;51.522;10.702;2024-03-08T00:06:06;99610.72;;;0.04;99.36
45621;BME280;31345;51.522;10.702;2024-03-08T00:08:35;99610.88;;;-0.07;99.60
45621;BME280;31345;51.522;10.702;2024-03-08T00:11:07;99608.34;;;-0.08;100.00
45621;BME280;31345;51.522;10.702;2024-03-08T00:13:35;99608.38;;;-0.11;100.00
45621;BME280;31345;51.522;10.702;2024-03-08T00:16:04;99594.75;;;-0.16;100.00
45621;BME280;31345;51.522;10.702;2024-03-08T00:18:37;99605.41;;;-0.48;100.00
45621;BME280;31345;51.522;10.702;2024-03-08T00:21:05;99589.88;;;-0.38;100.00
45621;BME280;31345;51.522;10.702;2024-03-08T00:23:36;99593.22;;;-0.32;100.00
45621;BME280;31345;51.522;10.702;2024-03-08T00:26:04;99584.69;;;-0.35;99.83
45621;BME280;31345;51.522;10.702;2024-03-08T00:28:32;99591.56;;;-0.36;100.00
45621;BME280;31345;51.522;10.702;2024-03-08T00:31:00;99587.44;;;-0.48;100.00
45621;BME280;31345;51.522;10.702;2024-03-08T00:33:33;99596.94;;;-0.56;100.00
45621;BME280;31345;51.522;10.702;2024-03-08T00:36:06;99585.69;;;-0.44;100.00
45621;BME280;31345;51.522;10.702;2024-03-08T00:38:35;99585.69;;;-0.44;100.00
45621;BME280;31345;51.522;10.702;2024-03-08T00:41:08;99585.69;;;-0.46;100.00
45621;BME280;31345;51.522;10.702;2024-03-08T00:43:36;99583.88;;;-0.37;100.00
45621;BME280;31345;51.522;10.702;2024-03-08T00:46:03;99576.22;;;-0.40;100.00
45621;BME280;31345;51.522;10.702;2024-03-08T00:48:31;99574.63;;;-0.51;100.00
45621;BME280;31345;51.522;10.702;2024-03-08T00:50:59;99572.78;;;-0.42;100.00
45621;BME280;31345;51.522;10.702;2024-03-08T00:53:33;99571.97;;;-0.43;100.00
45621;BME280;31345;51.522;10.702;2024-03-08T00:56:03;99569.38;;;-0.40;100.00
45621;BME280;31345;51.522;10.702;2024-03-08T00:58:31;99565.97;;;-0.43;100.00
45621;BME280;31345;51.522;10.702;2024-03-08T01:01:04;99563.41;;;-0.45;100.00
45621;BME280;31345;51.522;10.702;2024-03-08T01:03:37;99557.28;;;-0.35;100.00
45621;BME280;31345;51.522;10.702;2024-03-08T01:06:09;99553.09;;;-0.40;99.89
45621;BME280;31345;51.522;10.702;2024-03-08T01:08:43;99548.91;;;-0.48;99.77
45621;BME280;31345;51.522;10.702;2024-03-08T01:11:17;99551.47;;;-0.48;100.00
45621;BME280;31345;51.522;10.702;2024-03-08T01:13:50;99548.09;;;-0.51;100.00
45621;BME280;31345;51.522;10.702;2024-03-08T01:16:19;99545.56;;;-0.56;100.00
45621;BME280;31345;51.522;10.702;2024-03-08T01:18:47;99541.31;;;-0.57;100.00
45621;BME280;31345;51.522;10.702;2024-03-08T01:21:20;99533.66;;;-0.62;100.00
45621;BME280;31345;51.522;10.702;2024-03-08T01:24:05;99533.69;;;-0.65;100.00
45621;BME280;31345;51.522;10.702;2024-03-08T01:26:34;99529.38;;;-0.60;100.00
45621;BME280;31345;51.522;10.702;2024-03-08T01:29:07;99525.06;;;-0.59;100.00
45621;BME280;31345;51.522;10.702;2024-03-08T01:31:40;99518.25;;;-0.62;100.00
45621;BME280;31345;51.522;10.702;2024-03-08T01:34:07;99520.91;;;-0.68;100.00
45621;BME280;31345;51.522;10.702;2024-03-08T01:36:40;99517.34;;;-0.58;100.00
45621;BME280;31345;51.522;10.702;2024-03-08T01:39:08;99507.78;;;-0.48;100.00
45621;BME280;31345;51.522;10.702;2024-03-08T01:41:43;99505.94;;;-0.36;100.00
45621;BME280;31345;51.522;10.702;2024-03-08T01:44:15;99503.41;;;-0.39;100.00
45621;BME280;31345;51.522;10.702;2024-03-08T01:46:49;99497.44;;;-0.41;100.00
45621;BME280;31345;51.522;10.702;2024-03-08T01:49:24;99497.44;;;-0.40;99.98
45621;BME280;31345;51.522;10.702;2024-03-08T01:51:59;99491.44;;;-0.42;99.54
45621;BME280;31345;51.522;10.702;2024-03-08T01:54:33;99488.91;;;-0.45;99.88
45621;BME280;31345;51.522;10.702;2024-03-08T01:57:03;99474.31;;;-0.41;99.94
45621;BME280;31345;51.522;10.702;2024-03-08T01:59:31;99483.84;;;-0.48;100.00
45621;BME280;31345;51.522;10.702;2024-03-08T02:02:01;99477.72;;;-0.41;100.00
45621;BME280;31345;51.522;10.702;2024-03-08T02:04:30;99473.50;;;-0.45;100.00
45621;BME280;31345;51.522;10.702;2024-03-08T02:06:58;99472.69;;;-0.46;100.00
45621;BME280;31345;51.522;10.702;2024-03-08T02:09:26;99471.84;;;-0.48;100.00
45621;BME280;31345;51.522;10.702;2024-03-08T02:11:59;99460.59;;;-0.40;99.66
45621;BME280;31345;51.522;10.702;2024-03-08T02:14:33;99463.22;;;-0.45;99.51
45621;BME280;31345;51.522;10.702;2024-03-08T02:17:06;99466.75;;;-0.52;100.00
45621;BME280;31345;51.522;10.702;2024-03-08T02:19:39;99466.84;;;-0.59;100.00
45621;BME280;31345;51.522;10.702;2024-03-08T02:22:13;99472.06;;;-0.65;100.00
45621;BME280;31345;51.522;10.702;2024-03-08T02:24:46;99472.00;;;-0.59;100.00
45621;BME280;31345;51.522;10.702;2024-03-08T02:27:15;99459.16;;;-0.59;100.00
45621;BME280;31345;51.522;10.702;2024-03-08T02:29:48;99459.16;;;-0.60;99.75
45621;BME280;31345;51.522;10.702;2024-03-08T02:32:16;99464.34;;;-0.63;99.15
45621;BME280;31345;51.522;10.702;2024-03-08T02:34:44;99454.97;;;-0.67;100.00
45621;BME280;31345;51.522;10.702;2024-03-08T02:37:18;99449.06;;;-0.71;99.35
45621;BME280;31345;51.522;10.702;2024-03-08T02:39:46;99460.25;;;-0.77;100.00
45621;BME280;31345;51.522;10.702;2024-03-08T02:42:13;99451.81;;;-0.85;100.00
45621;BME280;31345;51.522;10.702;2024-03-08T02:44:42;99450.94;;;-0.86;100.00
45621;BME280;31345;51.522;10.702;2024-03-08T02:47:15;99450.91;;;-0.81;100.00
45621;BME280;31345;51.522;10.702;2024-03-08T02:49:48;99444.16;;;-0.91;100.00
45621;BME280;31345;51.522;10.702;2024-03-08T02:52:17;99448.41;;;-0.87;100.00
45621;BME280;31345;51.522;10.702;2024-03-08T02:54:52;99447.63;;;-0.94;100.00
45621;BME280;31345;51.522;10.702;2024-03-08T02:57:20;99445.19;;;-1.03;100.00
45621;BME280;31345;51.522;10.702;2024-03-08T02:59:48;99449.56;;;-1.10;100.00
45621;BME280;31345;51.522;10.702;2024-03-08T03:02:16;99435.94;;;-1.17;100.00
45621;BME280;31345;51.522;10.702;2024-03-08T03:04:44;99446.28;;;-1.23;100.00
45621;BME280;31345;51.522;10.702;2024-03-08T03:07:11;99436.84;;;-1.23;100.00
45621;BME280;31345;51.522;10.702;2024-03-08T03:09:40;99443.63;;;-1.18;100.00
45621;BME280;31345;51.522;10.702;2024-03-08T03:12:13;99441.19;;;-1.28;100.00
45621;BME280;31345;51.522;10.702;2024-03-08T03:14:45;99446.31;;;-1.26;100.00
45621;BME280;31345;51.522;10.702;2024-03-08T03:17:19;99442.06;;;-1.29;100.00
45621;BME280;31345;51.522;10.702;2024-03-08T03:19:52;99442.97;;;-1.31;100.00
45621;BME280;31345;51.522;10.702;2024-03-08T03:22:20;99438.47;;;-1.15;100.00
45621;BME280;31345;51.522;10.702;2024-03-08T03:24:54;99431.63;;;-1.12;100.00
45621;BME280;31345;51.522;10.702;2024-03-08T03:27:29;99429.94;;;-1.14;100.00
45621;BME280;31345;51.522;10.702;2024-03-08T03:30:02;99432.56;;;-1.19;100.00
45621;BME280;31345;51.522;10.702;2024-03-08T03:32:52;99433.44;;;-1.22;100.00
45621;BME280;31345;51.522;10.702;2024-03-08T03:35:26;99436.09;;;-1.32;100.00
45621;BME280;31345;51.522;10.702;2024-03-08T03:37:58;99427.59;;;-1.33;100.00
45621;BME280;31345;51.522;10.702;2024-03-08T03:40:34;99436.91;;;-1.26;100.00
45621;BME280;31345;51.522;10.702;2024-03-08T03:43:07;99442.94;;;-1.30;100.00
45621;BME280;31345;51.522;10.702;2024-03-08T03:45:41;99435.16;;;-1.25;100.00
45621;BME280;31345;51.522;10.702;2024-03-08T03:48:13;99437.72;;;-1.24;100.00
45621;BME280;31345;51.522;10.702;2024-03-08T03:50:46;99427.50;;;-1.27;100.00
45621;BME280;31345;51.522;10.702;2024-03-08T03:53:13;99430.84;;;-1.20;100.00
45621;BME280;31345;51.522;10.702;2024-03-08T03:55:42;99418.81;;;-1.15;100.00
45621;BME280;31345;51.522;10.702;2024-03-08T03:58:10;99416.25;;;-1.15;100.00
45621;BME280;31345;51.522;10.702;2024-03-08T04:00:38;99413.75;;;-1.23;100.00
45621;BME280;31345;51.522;10.702;2024-03-08T04:03:06;99414.72;;;-1.28;100.00
45621;BME280;31345;51.522;10.702;2024-03-08T04:05:34;99418.13;;;-1.29;100.00
45621;BME280;31345;51.522;10.702;2024-03-08T04:08:02;99411.28;;;-1.29;100.00
45621;BME280;31345;51.522;10.702;2024-03-08T04:10:30;99410.44;;;-1.29;100.00
45621;BME280;31345;51.522;10.702;2024-03-08T04:13:04;99409.59;;;-1.30;100.00
45621;BME280;31345;51.522;10.702;2024-03-08T04:15:37;99404.47;;;-1.30;100.00
45621;BME280;31345;51.522;10.702;2024-03-08T04:18:04;99401.19;;;-1.43;100.00
45621;BME280;31345;51.522;10.702;2024-03-08T04:20:37;99407.19;;;-1.42;100.00
45621;BME280;31345;51.522;10.702;2024-03-08T04:23:06;99408.13;;;-1.53;100.00
45621;BME280;31345;51.522;10.702;2024-03-08T04:25:34;99412.53;;;-1.64;100.00
45621;BME280;31345;51.522;10.702;2024-03-08T04:28:08;99415.84;;;-1.53;100.00
45621;BME280;31345;51.522;10.702;2024-03-08T04:30:43;99413.28;;;-1.56;100.00
45621;BME280;31345;51.522;10.702;2024-03-08T04:33:17;99420.94;;;-1.51;100.00
45621;BME280;31345;51.522;10.702;2024-03-08T04:35:50;99409.84;;;-1.52;100.00
45621;BME280;31345;51.522;10.702;2024-03-08T04:38:22;99407.22;;;-1.47;100.00
45621;BME280;31345;51.522;10.702;2024-03-08T04:40:56;99410.63;;;-1.46;100.00
45621;BME280;31345;51.522;10.702;2024-03-08T04:43:25;99403.81;;;-1.49;100.00
45621;BME280;31345;51.522;10.702;2024-03-08T04:46:01;99415.03;;;-1.58;100.00
45621;BME280;31345;51.522;10.702;2024-03-08T04:48:35;99405.63;;;-1.59;100.00
45621;BME280;31345;51.522;10.702;2024-03-08T04:51:03;99408.25;;;-1.62;100.00
45621;BME280;31345;51.522;10.702;2024-03-08T04:53:31;99403.97;;;-1.65;100.00
45621;BME280;31345;51.522;10.702;2024-03-08T04:56:00;99406.59;;;-1.66;100.00
45621;BME280;31345;51.522;10.702;2024-03-08T04:58:38;99401.53;;;-1.76;100.00
45621;BME280;31345;51.522;10.702;2024-03-08T05:01:11;99404.94;;;-1.72;100.00
45621;BME280;31345;51.522;10.702;2024-03-08T05:03:39;99398.03;;;-1.67;100.00
45621;BME280;31345;51.522;10.702;2024-03-08T05:06:06;99395.53;;;-1.73;100.00
45621;BME280;31345;51.522;10.702;2024-03-08T05:08:39;99400.72;;;-1.78;100.00
45621;BME280;31345;51.522;10.702;2024-03-08T05:11:12;99399.75;;;-1.70;100.00
45621;BME280;31345;51.522;10.702;2024-03-08T05:13:47;99401.47;;;-1.66;100.00
45621;BME280;31345;51.522;10.702;2024-03-08T05:16:20;99392.16;;;-1.75;100.00
45621;BME280;31345;51.522;10.702;2024-03-08T05:18:49;99396.41;;;-1.74;100.00
45621;BME280;31345;51.522;10.702;2024-03-08T05:21:22;99397.19;;;-1.70;100.00
45621;BME280;31345;51.522;10.702;2024-03-08T05:23:50;99398.09;;;-1.73;100.00
45621;BME280;31345;51.522;10.702;2024-03-08T05:26:23;99392.16;;;-1.75;100.00
45621;BME280;31345;51.522;10.702;2024-03-08T05:28:57;99398.16;;;-1.79;100.00
45621;BME280;31345;51.522;10.702;2024-03-08T05:31:25;99404.22;;;-1.88;100.00
45621;BME280;31345;51.522;10.702;2024-03-08T05:33:57;99393.06;;;-1.84;100.00
45621;BME280;31345;51.522;10.702;2024-03-08T05:36:25;99397.28;;;-1.78;100.00
45621;BME280;31345;51.522;10.702;2024-03-08T05:38:52;99396.53;;;-1.87;100.00
45621;BME280;31345;51.522;10.702;2024-03-08T05:41:25;99394.78;;;-1.84;100.00
45621;BME280;31345;51.522;10.702;2024-03-08T05:43:59;99397.41;;;-1.89;100.00
45621;BME280;31345;51.522;10.702;2024-03-08T05:46:27;99393.94;;;-1.83;100.00
45621;BME280;31345;51.522;10.702;2024-03-08T05:48:59;99393.97;;;-1.87;100.00
45621;BME280;31345;51.522;10.702;2024-03-08T05:51:37;99392.31;;;-1.94;100.00
45621;BME280;31345;51.522;10.702;2024-03-08T05:54:09;99387.94;;;-1.81;100.00
45621;BME280;31345;51.522;10.702;2024-03-08T05:56:41;99393.03;;;-1.79;100.00
45621;BME280;31345;51.522;10.702;2024-03-08T05:59:11;99394.78;;;-1.84;100.00
45621;BME280;31345;51.522;10.702;2024-03-08T06:01:59;99394.78;;;-1.84;100.00
45621;BME280;31345;51.522;10.702;2024-03-08T06:04:32;99398.06;;;-1.71;100.00
45621;BME280;31345;51.522;10.702;2024-03-08T06:07:04;99393.81;;;-1.71;100.00
45621;BME280;31345;51.522;10.702;2024-03-08T06:09:32;99399.00;;;-1.79;100.00
45621;BME280;31345;51.522;10.702;2024-03-08T06:12:05;99395.50;;;-1.70;100.00
45621;BME280;31345;51.522;10.702;2024-03-08T06:14:40;99397.25;;;-1.74;100.00
45621;BME280;31345;51.522;10.702;2024-03-08T06:17:10;99397.16;;;-1.66;100.00
45621;BME280;31345;51.522;10.702;2024-03-08T06:19:43;99402.25;;;-1.63;100.00
45621;BME280;31345;51.522;10.702;2024-03-08T06:22:17;99403.94;;;-1.60;100.00
45621;BME280;31345;51.522;10.702;2024-03-08T06:24:51;99407.44;;;-1.69;100.00
45621;BME280;31345;51.522;10.702;2024-03-08T06:27:25;99408.19;;;-1.59;100.00
45621;BME280;31345;51.522;10.702;2024-03-08T06:29:58;99400.47;;;-1.56;100.00
45621;BME280;31345;51.522;10.702;2024-03-08T06:32:27;99407.03;;;-1.31;100.00
45621;BME280;31345;51.522;10.702;2024-03-08T06:35:00;99399.25;;;-1.24;100.00
45621;BME280;31345;51.522;10.702;2024-03-08T06:37:32;99399.34;;;-1.30;100.00
45621;BME280;31345;51.522;10.702;2024-03-08T06:40:07;99401.72;;;-1.14;100.00
45621;BME280;31345;51.522;10.702;2024-03-08T06:42:40;99399.91;;;-1.07;100.00
45621;BME280;31345;51.522;10.702;2024-03-08T06:45:12;99393.75;;;-0.97;100.00
45621;BME280;31345;51.522;10.702;2024-03-08T06:47:51;99398.78;;;-0.86;100.00
45621;BME280;31345;51.522;10.702;2024-03-08T06:50:26;99399.53;;;-0.81;100.00
45621;BME280;31345;51.522;10.702;2024-03-08T06:52:54;99396.25;;;-0.91;100.00
45621;BME280;31345;51.522;10.702;2024-03-08T06:55:26;99397.88;;;-0.82;100.00
45621;BME280;31345;51.522;10.702;2024-03-08T06:57:54;99386.50;;;-0.65;100.00
45621;BME280;31345;51.522;10.702;2024-03-08T07:00:27;99385.56;;;-0.61;100.00
45621;BME280;31345;51.522;10.702;2024-03-08T07:03:03;99393.09;;;-0.49;100.00
45621;BME280;31345;51.522;10.702;2024-03-08T07:05:38;99389.31;;;-0.26;100.00
45621;BME280;31345;51.522;10.702;2024-03-08T07:08:06;99387.38;;;-0.14;100.00
45621;BME280;31345;51.522;10.702;2024-03-08T07:10:39;99377.94;;;-0.12;100.00
45621;BME280;31345;51.522;10.702;2024-03-08T07:13:08;99387.03;;;0.06;100.00
45621;BME280;31345;51.522;10.702;2024-03-08T07:15:36;99381.69;;;0.17;100.00
45621;BME280;31345;51.522;10.702;2024-03-08T07:18:10;99385.06;;;0.20;100.00
45621;BME280;31345;51.522;10.702;2024-03-08T07:20:41;99377.19;;;0.30;100.00
45621;BME280;31345;51.522;10.702;2024-03-08T07:23:14;99374.59;;;0.30;99.58
45621;BME280;31345;51.522;10.702;2024-03-08T07:26:08;99370.03;;;0.46;99.59
45621;BME280;31345;51.522;10.702;2024-03-08T07:28:41;99374.81;;;0.62;98.54
45621;BME280;31345;51.522;10.702;2024-03-08T07:31:13;99369.00;;;0.53;98.99
45621;BME280;31345;51.522;10.702;2024-03-08T07:33:54;99368.09;;;0.56;99.38
45621;BME280;31345;51.522;10.702;2024-03-08T07:36:22;99363.59;;;0.66;98.89
45621;BME280;31345;51.522;10.702;2024-03-08T07:38:49;99362.38;;;0.84;99.48
45621;BME280;31345;51.522;10.702;2024-03-08T07:41:17;99366.72;;;0.82;99.28
45621;BME280;31345;51.522;10.702;2024-03-08T07:43:49;99363.84;;;0.96;99.67
45621;BME280;31345;51.522;10.702;2024-03-08T07:46:23;99363.13;;;0.89;99.88
45621;BME280;31345;51.522;10.702;2024-03-08T07:48:51;99355.53;;;0.83;100.00
45621;BME280;31345;51.522;10.702;2024-03-08T07:51:25;99358.47;;;1.05;99.96
45621;BME280;31345;51.522;10.702;2024-03-08T07:53:53;99351.66;;;1.03;99.32
45621;BME280;31345;51.522;10.702;2024-03-08T07:56:21;99349.22;;;0.98;98.90
45621;BME280;31345;51.522;10.702;2024-03-08T07:58:48;99353.66;;;1.28;98.88
45621;BME280;31345;51.522;10.702;2024-03-08T08:01:21;99342.84;;;1.51;97.82
45621;BME280;31345;51.522;10.702;2024-03-08T08:03:49;99341.75;;;1.60;97.53
45621;BME280;31345;51.522;10.702;2024-03-08T08:06:21;99338.56;;;1.50;97.58
45621;BME280;31345;51.522;10.702;2024-03-08T08:08:51;99334.69;;;1.68;98.42
45621;BME280;31345;51.522;10.702;2024-03-08T08:11:26;99331.56;;;1.55;97.57
45621;BME280;31345;51.522;10.702;2024-03-08T08:13:59;99333.97;;;1.61;98.25
45621;BME280;31345;51.522;10.702;2024-03-08T08:16:32;99328.22;;;1.86;97.62
45621;BME280;31345;51.522;10.702;2024-03-08T08:19:04;99315.75;;;2.03;97.20
45621;BME280;31345;51.522;10.702;2024-03-08T08:21:34;99313.56;;;2.20;96.24
45621;BME280;31345;51.522;10.702;2024-03-08T08:24:09;99315.28;;;2.20;97.02
45621;BME280;31345;51.522;10.702;2024-03-08T08:26:42;99309.09;;;2.25;97.15
45621;BME280;31345;51.522;10.702;2024-03-08T08:29:10;99300.56;;;2.53;95.70
45621;BME280;31345;51.522;10.702;2024-03-08T08:31:38;99303.31;;;2.77;95.39
45621;BME280;31345;51.522;10.702;2024-03-08T08:34:06;99296.69;;;2.97;93.53
45621;BME280;31345;51.522;10.702;2024-03-08T08:36:38;99298.94;;;3.08;92.31
45621;BME280;31345;51.522;10.702;2024-03-08T08:39:06;99295.25;;;3.15;92.04
45621;BME280;31345;51.522;10.702;2024-03-08T08:41:45;99292.28;;;3.28;90.44
45621;BME280;31345;51.522;10.702;2024-03-08T08:44:13;99292.69;;;3.42;91.50
45621;BME280;31345;51.522;10.702;2024-03-08T08:46:41;99293.50;;;3.43;91.41
45621;BME280;31345;51.522;10.702;2024-03-08T08:49:09;99292.69;;;3.42;91.37
45621;BME280;31345;51.522;10.702;2024-03-08T08:51:42;99293.41;;;3.46;90.61
45621;BME280;31345;51.522;10.702;2024-03-08T08:54:14;99289.47;;;3.61;90.02
45621;BME280;31345;51.522;10.702;2024-03-08T08:56:49;99290.03;;;3.69;89.88
45621;BME280;31345;51.522;10.702;2024-03-08T08:59:22;99283.63;;;3.81;88.71
45621;BME280;31345;51.522;10.702;2024-03-08T09:01:56;99286.72;;;3.91;90.20
45621;BME280;31345;51.522;10.702;2024-03-08T09:04:29;99277.94;;;3.95;89.38
45621;BME280;31345;51.522;10.702;2024-03-08T09:06:57;99275.81;;;4.07;88.12
45621;BME280;31345;51.522;10.702;2024-03-08T09:09:29;99274.75;;;4.13;86.27
45621;BME280;31345;51.522;10.702;2024-03-08T09:12:03;99275.69;;;4.34;87.39
45621;BME280;31345;51.522;10.702;2024-03-08T09:14:36;99260.31;;;4.31;86.05
45621;BME280;31345;51.522;10.702;2024-03-08T09:17:09;99256.84;;;4.30;84.95
45621;BME280;31345;51.522;10.702;2024-03-08T09:19:41;99262.88;;;4.55;85.85
45621;BME280;31345;51.522;10.702;2024-03-08T09:22:14;99250.91;;;4.75;85.60
45621;BME280;31345;51.522;10.702;2024-03-08T09:24:47;99250.56;;;4.60;84.44
45621;BME280;31345;51.522;10.702;2024-03-08T09:27:21;99245.81;;;4.49;84.63
45621;BME280;31345;51.522;10.702;2024-03-08T09:29:54;99249.53;;;4.42;85.00
45621;BME280;31345;51.522;10.702;2024-03-08T09:32:27;99247.31;;;4.32;84.43
45621;BME280;31345;51.522;10.702;2024-03-08T09:34:59;99237.84;;;4.54;83.66
45621;BME280;31345;51.522;10.702;2024-03-08T09:37:27;99227.22;;;4.84;84.40
45621;BME280;31345;51.522;10.702;2024-03-08T09:40:00;99230.91;;;4.99;85.46
45621;BME280;31345;51.522;10.702;2024-03-08T09:42:37;99219.34;;;5.08;83.71
45621;BME280;31345;51.522;10.702;2024-03-08T09:45:11;99223.63;;;5.09;84.61
45621;BME280;31345;51.522;10.702;2024-03-08T09:47:45;99211.06;;;5.20;81.06
45621;BME280;31345;51.522;10.702;2024-03-08T09:50:12;99208.59;;;5.38;81.08
45621;BME280;31345;51.522;10.702;2024-03-08T09:52:40;99208.75;;;5.75;82.82
45621;BME280;31345;51.522;10.702;2024-03-08T09:55:10;99203.72;;;5.51;80.28
45621;BME280;31345;51.522;10.702;2024-03-08T09:57:44;99200.94;;;5.56;79.75
45621;BME280;31345;51.522;10.702;2024-03-08T10:00:34;99186.56;;;5.68;78.40
45621;BME280;31345;51.522;10.702;2024-03-08T10:03:07;99187.56;;;5.65;78.24
45621;BME280;31345;51.522;10.702;2024-03-08T10:05:41;99191.56;;;5.72;78.51
45621;BME280;31345;51.522;10.702;2024-03-08T10:08:10;99180.34;;;5.72;79.66
45621;BME280;31345;51.522;10.702;2024-03-08T10:10:38;99182.81;;;5.94;78.78
45621;BME280;31345;51.522;10.702;2024-03-08T10:13:08;99170.69;;;6.14;76.92
45621;BME280;31345;51.522;10.702;2024-03-08T10:15:41;99175.41;;;6.25;76.28
45621;BME280;31345;51.522;10.702;2024-03-08T10:18:14;99156.81;;;6.52;76.83
45621;BME280;31345;51.522;10.702;2024-03-08T10:21:02;99155.66;;;6.40;74.36
45621;BME280;31345;51.522;10.702;2024-03-08T10:23:31;99159.31;;;6.36;74.44
45621;BME280;31345;51.522;10.702;2024-03-08T10:26:12;99150.78;;;6.51;73.09
45621;BME280;31345;51.522;10.702;2024-03-08T10:28:49;99151.19;;;6.24;72.01
45621;BME280;31345;51.522;10.702;2024-03-08T10:31:17;99143.59;;;6.39;73.80
45621;BME280;31345;51.522;10.702;2024-03-08T10:33:45;99148.66;;;6.60;74.63
45621;BME280;31345;51.522;10.702;2024-03-08T10:36:18;99144.59;;;6.72;73.22
45621;BME280;31345;51.522;10.702;2024-03-08T10:38:46;99145.31;;;6.75;74.64
45621;BME280;31345;51.522;10.702;2024-03-08T10:41:23;99142.72;;;6.75;72.98
45621;BME280;31345;51.522;10.702;2024-03-08T10:44:08;99141.00;;;6.74;73.11
45621;BME280;31345;51.522;10.702;2024-03-08T10:46:57;99139.25;;;6.75;70.72
45621;BME280;31345;51.522;10.702;2024-03-08T10:49:36;99131.31;;;6.96;71.55
45621;BME280;31345;51.522;10.702;2024-03-08T10:52:10;99144.34;;;7.47;72.91
45621;BME280;31345;51.522;10.702;2024-03-08T10:54:40;99142.97;;;7.40;69.68
45621;BME280;31345;51.522;10.702;2024-03-08T10:57:17;99134.25;;;7.41;70.72
45621;BME280;31345;51.522;10.702;2024-03-08T10:59:52;99137.03;;;7.20;68.44
45621;BME280;31345;51.522;10.702;2024-03-08T11:02:25;99129.53;;;7.31;68.03
45621;BME280;31345;51.522;10.702;2024-03-08T11:04:58;99129.81;;;7.25;70.56
45621;BME280;31345;51.522;10.702;2024-03-08T11:07:26;99117.63;;;7.43;70.61
45621;BME280;31345;51.522;10.702;2024-03-08T11:10:02;99121.19;;;7.25;69.96
45621;BME280;31345;51.522;10.702;2024-03-08T11:12:37;99127.38;;;7.22;69.61
45621;BME280;31345;51.522;10.702;2024-03-08T11:15:12;99110.88;;;7.23;69.52
45621;BME280;31345;51.522;10.702;2024-03-08T11:17:44;99121.44;;;7.20;71.32
45621;BME280;31345;51.522;10.702;2024-03-08T11:20:18;99108.44;;;7.36;70.72
45621;BME280;31345;51.522;10.702;2024-03-08T11:22:53;99097.78;;;7.59;73.58
45621;BME280;31345;51.522;10.702;2024-03-08T11:25:35;99098.25;;;7.99;71.89
45621;BME280;31345;51.522;10.702;2024-03-08T11:28:14;99077.06;;;7.73;68.58
45621;BME280;31345;51.522;10.702;2024-03-08T11:31:23;99074.97;;;7.80;69.43
45621;BME280;31345;51.522;10.702;2024-03-08T11:33:56;99088.16;;;7.93;68.76
45621;BME280;31345;51.522;10.702;2024-03-08T11:36:24;99068.00;;;8.13;69.80
45621;BME280;31345;51.522;10.702;2024-03-08T11:38:57;99059.09;;;8.01;69.10
45621;BME280;31345;51.522;10.702;2024-03-08T11:41:25;99062.22;;;8.07;69.23
45621;BME280;31345;51.522;10.702;2024-03-08T11:44:05;99061.34;;;8.23;69.39
45621;BME280;31345;51.522;10.702;2024-03-08T11:46:39;99056.25;;;8.36;68.41
45621;BME280;31345;51.522;10.702;2024-03-08T11:49:17;99049.44;;;8.19;67.90
45621;BME280;31345;51.522;10.702;2024-03-08T11:51:45;99057.72;;;8.26;69.38
45621;BME280;31345;51.522;10.702;2024-03-08T11:54:18;99052.44;;;8.11;70.51
45621;BME280;31345;51.522;10.702;2024-03-08T11:56:46;99053.25;;;8.28;69.67
45621;BME280;31345;51.522;10.702;2024-03-08T11:59:14;99054.91;;;8.29;68.29
45621;BME280;31345;51.522;10.702;2024-03-08T12:02:03;99046.25;;;7.98;69.61
45621;BME280;31345;51.522;10.702;2024-03-08T12:04:36;99044.50;;;8.29;69.46
45621;BME280;31345;51.522;10.702;2024-03-08T12:07:10;99041.47;;;8.37;70.07
45621;BME280;31345;51.522;10.702;2024-03-08T12:09:40;99046.19;;;8.60;69.22
45621;BME280;31345;51.522;10.702;2024-03-08T12:12:17;99030.97;;;8.53;68.63
45621;BME280;31345;51.522;10.702;2024-03-08T12:14:45;99026.06;;;8.48;69.61
45621;BME280;31345;51.522;10.702;2024-03-08T12:17:14;99023.28;;;8.51;68.32
45621;BME280;31345;51.522;10.702;2024-03-08T12:19:46;99017.84;;;8.40;67.19
45621;BME280;31345;51.522;10.702;2024-03-08T12:22:19;99012.25;;;8.31;69.37
45621;BME280;31345;51.522;10.702;2024-03-08T12:25:03;99010.63;;;8.59;70.19
45621;BME280;31345;51.522;10.702;2024-03-08T12:27:36;99003.56;;;8.62;68.09
45621;BME280;31345;51.522;10.702;2024-03-08T12:30:19;98999.84;;;8.51;66.66
45621;BME280;31345;51.522;10.702;2024-03-08T12:32:55;98998.63;;;8.26;67.29
45621;BME280;31345;51.522;10.702;2024-03-08T12:35:29;99002.00;;;8.28;68.81
45621;BME280;31345;51.522;10.702;2024-03-08T12:37:59;98985.69;;;8.10;68.41
45621;BME280;31345;51.522;10.702;2024-03-08T12:40:28;98991.81;;;8.40;69.54
45621;BME280;31345;51.522;10.702;2024-03-08T12:42:57;98976.78;;;8.29;67.74
45621;BME280;31345;51.522;10.702;2024-03-08T12:45:25;98982.53;;;8.19;69.56
45621;BME280;31345;51.522;10.702;2024-03-08T12:47:55;98965.94;;;8.37;69.35
45621;BME280;31345;51.522;10.702;2024-03-08T12:50:23;98971.88;;;8.39;68.74
45621;BME280;31345;51.522;10.702;2024-03-08T12:52:52;98969.25;;;8.24;67.79
45621;BME280;31345;51.522;10.702;2024-03-08T12:55:19;98966.94;;;8.34;68.61
45621;BME280;31345;51.522;10.702;2024-03-08T12:57:47;98958.41;;;8.46;69.27
45621;BME280;31345;51.522;10.702;2024-03-08T13:00:20;98955.88;;;8.45;67.33
45621;BME280;31345;51.522;10.702;2024-03-08T13:02:56;98964.31;;;8.79;68.89
45621;BME280;31345;51.522;10.702;2024-03-08T13:05:29;98953.28;;;8.45;67.09
45621;BME280;31345;51.522;10.702;2024-03-08T13:07:57;98952.47;;;8.73;66.89
45621;BME280;31345;51.522;10.702;2024-03-08T13:10:25;98953.03;;;8.93;65.96
45621;BME280;31345;51.522;10.702;2024-03-08T13:12:57;98940.72;;;8.95;65.96
45621;BME280;31345;51.522;10.702;2024-03-08T13:15:25;98950.03;;;9.14;65.89